sensor_id;sensor_type;location;lat;lon;timestamp;pressure;altitude;pressure_sealevel;temperature
79053;BMP280;68451;49.510;6.026;2023-07-20T00:00:29;98042.56;;;15.07
79053;BMP280;68451;49.510;6.026;2023-07-20T00:03:09;98025.81;;;14.91
79053;BMP280;68451;49.510;6.026;2023-07-20T00:05:35;98074.00;;;15.23
79053;BMP280;68451;49.510;6.026;2023-07-20T00:08:00;98053.06;;;15.07
79053;BMP280;68451;49.510;6.026;2023-07-20T00:10:26;98051.63;;;14.94
79053;BMP280;68451;49.510;6.026;2023-07-20T00:12:51;98018.47;;;14.66
79053;BMP280;68451;49.510;6.026;2023-07-20T00:15:17;98080.63;;;14.99
79053;BMP280;68451;49.510;6.026;2023-07-20T00:17:42;98075.31;;;14.94
79053;BMP280;68451;49.510;6.026;2023-07-20T00:20:10;98095.31;;;15.00
79053;BMP280;68451;49.510;6.026;2023-07-20T00:22:36;98090.03;;;14.95
79053;BMP280;68451;49.510;6.026;2023-07-20T00:25:02;98078.31;;;14.81
79053;BMP280;68451;49.510;6.026;2023-07-20T00:27:27;98065.53;;;14.68
79053;BMP280;68451;49.510;6.026;2023-07-20T00:29:53;98028.50;;;14.48
79053;BMP280;68451;49.510;6.026;2023-07-20T00:32:19;98078.19;;;14.71
79053;BMP280;68451;49.510;6.026;2023-07-20T00:34:44;98053.25;;;14.52
79053;BMP280;68451;49.510;6.026;2023-07-20T00:37:09;97908.41;;;13.56
79053;BMP280;68451;49.510;6.026;2023-07-20T00:39:35;98026.34;;;14.23
79053;BMP280;68451;49.510;6.026;2023-07-20T00:42:00;98067.91;;;14.48
79053;BMP280;68451;49.510;6.026;2023-07-20T00:44:26;98013.72;;;14.03
79053;BMP280;68451;49.510;6.026;2023-07-20T00:46:51;98081.59;;;14.50
79053;BMP280;68451;49.510;6.026;2023-07-20T00:49:17;98071.75;;;14.40
79053;BMP280;68451;49.510;6.026;2023-07-20T00:51:46;98068.81;;;14.37
79053;BMP280;68451;49.510;6.026;2023-07-20T00:54:12;98050.78;;;14.23
79053;BMP280;68451;49.510;6.026;2023-07-20T00:56:39;98084.09;;;14.40
79053;BMP280;68451;49.510;6.026;2023-07-20T00:59:04;98056.25;;;14.22
79053;BMP280;68451;49.510;6.026;2023-07-20T01:01:30;98069.69;;;14.25
79053;BMP280;68451;49.510;6.026;2023-07-20T01:03:55;98070.19;;;14.22
79053;BMP280;68451;49.510;6.026;2023-07-20T01:06:44;98081.06;;;14.31
79053;BMP280;68451;49.510;6.026;2023-07-20T01:09:15;98092.38;;;14.31
79053;BMP280;68451;49.510;6.026;2023-07-20T01:12:00;97989.38;;;13.69
79053;BMP280;68451;49.510;6.026;2023-07-20T01:14:29;98043.47;;;14.09
79053;BMP280;68451;49.510;6.026;2023-07-20T01:16:55;98042.38;;;14.05
79053;BMP280;68451;49.510;6.026;2023-07-20T01:19:20;98077.56;;;14.25
79053;BMP280;68451;49.510;6.026;2023-07-20T01:21:59;98045.72;;;14.00
79053;BMP280;68451;49.510;6.026;2023-07-20T01:24:45;98077.63;;;14.30
79053;BMP280;68451;49.510;6.026;2023-07-20T01:30:25;98027.34;;;14.00
79053;BMP280;68451;49.510;6.026;2023-07-20T01:32:55;98030.78;;;14.01
79053;BMP280;68451;49.510;6.026;2023-07-20T01:35:23;97918.28;;;13.32
79053;BMP280;68451;49.510;6.026;2023-07-20T01:37:50;98020.72;;;13.98
79053;BMP280;68451;49.510;6.026;2023-07-20T01:40:16;98024.47;;;14.02
79053;BMP280;68451;49.510;6.026;2023-07-20T01:42:46;98031.38;;;14.08
79053;BMP280;68451;49.510;6.026;2023-07-20T01:45:12;98053.00;;;14.15
79053;BMP280;68451;49.510;6.026;2023-07-20T01:47:38;98005.66;;;13.88
79053;BMP280;68451;49.510;6.026;2023-07-20T01:50:03;98028.44;;;14.04
79053;BMP280;68451;49.510;6.026;2023-07-20T01:52:30;98054.59;;;14.16
79053;BMP280;68451;49.510;6.026;2023-07-20T01:54:55;98060.28;;;14.29
79053;BMP280;68451;49.510;6.026;2023-07-20T01:57:21;98031.22;;;14.14
79053;BMP280;68451;49.510;6.026;2023-07-20T01:59:46;98036.78;;;14.18
79053;BMP280;68451;49.510;6.026;2023-07-20T02:02:11;98015.31;;;14.04
79053;BMP280;68451;49.510;6.026;2023-07-20T02:04:37;98062.91;;;14.29
79053;BMP280;68451;49.510;6.026;2023-07-20T02:07:03;97966.81;;;13.68
79053;BMP280;68451;49.510;6.026;2023-07-20T02:09:28;98041.47;;;14.16
79053;BMP280;68451;49.510;6.026;2023-07-20T02:11:55;98058.38;;;14.25
79053;BMP280;68451;49.510;6.026;2023-07-20T02:14:20;97975.78;;;13.72
79053;BMP280;68451;49.510;6.026;2023-07-20T02:16:48;97967.22;;;13.60
79053;BMP280;68451;49.510;6.026;2023-07-20T02:19:17;98029.16;;;14.00
79053;BMP280;68451;49.510;6.026;2023-07-20T02:21:42;98056.38;;;14.10
79053;BMP280;68451;49.510;6.026;2023-07-20T02:24:08;98055.22;;;14.06
79053;BMP280;68451;49.510;6.026;2023-07-20T02:26:33;97970.47;;;13.51
79053;BMP280;68451;49.510;6.026;2023-07-20T02:28:59;98016.81;;;13.78
79053;BMP280;68451;49.510;6.026;2023-07-20T02:31:24;98058.28;;;13.98
79053;BMP280;68451;49.510;6.026;2023-07-20T02:33:50;97886.66;;;12.89
79053;BMP280;68451;49.510;6.026;2023-07-20T02:36:15;98007.09;;;13.62
79053;BMP280;68451;49.510;6.026;2023-07-20T02:38:42;98004.56;;;13.51
79053;BMP280;68451;49.510;6.026;2023-07-20T02:41:07;97999.03;;;13.47
79053;BMP280;68451;49.510;6.026;2023-07-20T02:43:33;98063.53;;;13.81
79053;BMP280;68451;49.510;6.026;2023-07-20T02:45:58;98064.34;;;13.82
79053;BMP280;68451;49.510;6.026;2023-07-20T02:48:24;98057.19;;;13.77
79053;BMP280;68451;49.510;6.026;2023-07-20T02:50:49;98013.47;;;13.50
79053;BMP280;68451;49.510;6.026;2023-07-20T02:53:15;98046.00;;;13.65
79053;BMP280;68451;49.510;6.026;2023-07-20T02:55:40;98049.34;;;13.61
79053;BMP280;68451;49.510;6.026;2023-07-20T02:58:06;98052.91;;;13.55
79053;BMP280;68451;49.510;6.026;2023-07-20T03:00:32;97981.81;;;13.06
79053;BMP280;68451;49.510;6.026;2023-07-20T03:02:58;98027.59;;;13.32
79053;BMP280;68451;49.510;6.026;2023-07-20T03:05:23;97905.09;;;12.49
79053;BMP280;68451;49.510;6.026;2023-07-20T03:07:53;97932.16;;;12.54
79053;BMP280;68451;49.510;6.026;2023-07-20T03:10:19;98039.50;;;13.23
79053;BMP280;68451;49.510;6.026;2023-07-20T03:12:44;98061.38;;;13.28
79053;BMP280;68451;49.510;6.026;2023-07-20T03:15:10;98023.06;;;12.99
79053;BMP280;68451;49.510;6.026;2023-07-20T03:17:35;98078.84;;;13.39
79053;BMP280;68451;49.510;6.026;2023-07-20T03:20:01;97941.50;;;12.50
79053;BMP280;68451;49.510;6.026;2023-07-20T03:22:26;98078.00;;;13.34
79053;BMP280;68451;49.510;6.026;2023-07-20T03:24:52;98030.38;;;12.97
79053;BMP280;68451;49.510;6.026;2023-07-20T03:27:18;98048.34;;;13.05
79053;BMP280;68451;49.510;6.026;2023-07-20T03:29:44;98017.34;;;12.85
79053;BMP280;68451;49.510;6.026;2023-07-20T03:32:10;98018.75;;;12.76
79053;BMP280;68451;49.510;6.026;2023-07-20T03:34:36;98032.88;;;12.75
79053;BMP280;68451;49.510;6.026;2023-07-20T03:37:01;97935.88;;;12.02
79053;BMP280;68451;49.510;6.026;2023-07-20T03:39:29;98063.72;;;12.85
79053;BMP280;68451;49.510;6.026;2023-07-20T03:41:55;98072.50;;;12.79
79053;BMP280;68451;49.510;6.026;2023-07-20T03:44:20;98052.81;;;12.65
79053;BMP280;68451;49.510;6.026;2023-07-20T03:46:46;97909.28;;;11.70
79053;BMP280;68451;49.510;6.026;2023-07-20T03:49:11;98021.94;;;12.38
79053;BMP280;68451;49.510;6.026;2023-07-20T03:51:37;98081.47;;;12.83
79053;BMP280;68451;49.510;6.026;2023-07-20T03:54:02;98083.19;;;12.89
79053;BMP280;68451;49.510;6.026;2023-07-20T03:56:28;98070.34;;;12.76
79053;BMP280;68451;49.510;6.026;2023-07-20T03:58:53;98045.66;;;12.60
79053;BMP280;68451;49.510;6.026;2023-07-20T04:01:19;98027.97;;;12.39
79053;BMP280;68451;49.510;6.026;2023-07-20T04:03:44;97794.81;;;10.86
79053;BMP280;68451;49.510;6.026;2023-07-20T04:06:10;98065.38;;;12.51
79053;BMP280;68451;49.510;6.026;2023-07-20T04:08:36;98081.41;;;12.66
79053;BMP280;68451;49.510;6.026;2023-07-20T04:11:02;97900.22;;;11.49
79053;BMP280;68451;49.510;6.026;2023-07-20T04:13:28;98066.06;;;12.58
79053;BMP280;68451;49.510;6.026;2023-07-20T04:15:54;98044.94;;;12.36
79053;BMP280;68451;49.510;6.026;2023-07-20T04:18:20;98038.22;;;12.29
79053;BMP280;68451;49.510;6.026;2023-07-20T04:20:46;97956.06;;;11.78
79053;BMP280;68451;49.510;6.026;2023-07-20T04:23:11;98005.13;;;12.11
79053;BMP280;68451;49.510;6.026;2023-07-20T04:25:39;98030.84;;;12.26
79053;BMP280;68451;49.510;6.026;2023-07-20T04:28:06;98022.41;;;12.24
79053;BMP280;68451;49.510;6.026;2023-07-20T04:30:36;98083.25;;;12.66
79053;BMP280;68451;49.510;6.026;2023-07-20T04:33:03;98078.91;;;12.71
79053;BMP280;68451;49.510;6.026;2023-07-20T04:35:50;97952.59;;;12.01
79053;BMP280;68451;49.510;6.026;2023-07-20T04:38:16;97924.97;;;11.93
79053;BMP280;68451;49.510;6.026;2023-07-20T04:40:47;98050.41;;;12.75
79053;BMP280;68451;49.510;6.026;2023-07-20T04:43:13;98088.69;;;13.04
79053;BMP280;68451;49.510;6.026;2023-07-20T04:45:39;98087.88;;;13.15
79053;BMP280;68451;49.510;6.026;2023-07-20T04:48:09;98052.34;;;13.08
79053;BMP280;68451;49.510;6.026;2023-07-20T04:50:35;98047.38;;;13.23
79053;BMP280;68451;49.510;6.026;2023-07-20T04:53:01;98071.81;;;13.57
79053;BMP280;68451;49.510;6.026;2023-07-20T04:55:27;98053.16;;;13.70
79053;BMP280;68451;49.510;6.026;2023-07-20T04:57:53;98074.25;;;14.13
79053;BMP280;68451;49.510;6.026;2023-07-20T05:00:19;97685.97;;;11.99
79053;BMP280;68451;49.510;6.026;2023-07-20T05:05:29;98075.19;;;15.11
79053;BMP280;68451;49.510;6.026;2023-07-20T05:07:55;98043.81;;;15.31
79053;BMP280;68451;49.510;6.026;2023-07-20T05:10:20;98061.38;;;15.79
79053;BMP280;68451;49.510;6.026;2023-07-20T05:12:46;98072.66;;;16.17
79053;BMP280;68451;49.510;6.026;2023-07-20T05:15:12;98056.94;;;16.32
79053;BMP280;68451;49.510;6.026;2023-07-20T05:17:38;97945.56;;;15.84
79053;BMP280;68451;49.510;6.026;2023-07-20T05:20:04;98078.06;;;16.99
79053;BMP280;68451;49.510;6.026;2023-07-20T05:22:30;98067.03;;;17.22
79053;BMP280;68451;49.510;6.026;2023-07-20T05:24:55;97942.22;;;16.76
79053;BMP280;68451;49.510;6.026;2023-07-20T05:27:21;98061.00;;;17.98
79053;BMP280;68451;49.510;6.026;2023-07-20T05:29:46;98027.91;;;18.25
79053;BMP280;68451;49.510;6.026;2023-07-20T05:32:15;98062.31;;;18.85
79053;BMP280;68451;49.510;6.026;2023-07-20T05:34:40;98077.84;;;19.50
79053;BMP280;68451;49.510;6.026;2023-07-20T05:37:06;98062.38;;;19.91
79053;BMP280;68451;49.510;6.026;2023-07-20T05:39:34;98057.91;;;20.44
79053;BMP280;68451;49.510;6.026;2023-07-20T05:42:00;98039.19;;;20.78
79053;BMP280;68451;49.510;6.026;2023-07-20T05:44:25;98088.50;;;21.59
79053;BMP280;68451;49.510;6.026;2023-07-20T05:46:50;98067.78;;;22.07
79053;BMP280;68451;49.510;6.026;2023-07-20T05:49:16;98082.38;;;22.64
79053;BMP280;68451;49.510;6.026;2023-07-20T05:51:41;97853.53;;;21.65
79053;BMP280;68451;49.510;6.026;2023-07-20T05:54:07;98002.13;;;23.20
79053;BMP280;68451;49.510;6.026;2023-07-20T05:56:33;98079.00;;;24.02
79053;BMP280;68451;49.510;6.026;2023-07-20T05:58:58;98089.13;;;24.45
79053;BMP280;68451;49.510;6.026;2023-07-20T06:01:24;98058.13;;;24.75
79053;BMP280;68451;49.510;6.026;2023-07-20T06:03:52;98070.00;;;25.08
79053;BMP280;68451;49.510;6.026;2023-07-20T06:06:18;98072.03;;;25.20
79053;BMP280;68451;49.510;6.026;2023-07-20T06:08:45;98056.00;;;25.28
79053;BMP280;68451;49.510;6.026;2023-07-20T06:11:12;98101.28;;;25.51
79053;BMP280;68451;49.510;6.026;2023-07-20T06:13:38;97995.03;;;25.05
79053;BMP280;68451;49.510;6.026;2023-07-20T06:16:04;98080.41;;;25.61
79053;BMP280;68451;49.510;6.026;2023-07-20T06:18:29;98082.88;;;25.32
79053;BMP280;68451;49.510;6.026;2023-07-20T06:20:56;98006.03;;;24.86
79053;BMP280;68451;49.510;6.026;2023-07-20T06:23:21;98096.09;;;25.46
79053;BMP280;68451;49.510;6.026;2023-07-20T06:25:47;98084.16;;;25.60
79053;BMP280;68451;49.510;6.026;2023-07-20T06:28:14;98066.66;;;25.89
79053;BMP280;68451;49.510;6.026;2023-07-20T06:30:40;97894.97;;;24.76
79053;BMP280;68451;49.510;6.026;2023-07-20T06:33:06;97987.31;;;25.55
79053;BMP280;68451;49.510;6.026;2023-07-20T06:35:33;98106.97;;;26.39
79053;BMP280;68451;49.510;6.026;2023-07-20T06:37:58;98067.03;;;26.16
79053;BMP280;68451;49.510;6.026;2023-07-20T06:40:26;98038.84;;;25.64
79053;BMP280;68451;49.510;6.026;2023-07-20T06:42:51;98006.84;;;25.04
79053;BMP280;68451;49.510;6.026;2023-07-20T06:45:17;98086.50;;;25.53
79053;BMP280;68451;49.510;6.026;2023-07-20T06:47:42;98082.72;;;25.63
79053;BMP280;68451;49.510;6.026;2023-07-20T06:50:09;98110.44;;;25.75
79053;BMP280;68451;49.510;6.026;2023-07-20T06:52:35;98085.84;;;25.82
79053;BMP280;68451;49.510;6.026;2023-07-20T06:55:01;97921.94;;;25.18
79053;BMP280;68451;49.510;6.026;2023-07-20T06:57:26;98085.53;;;25.92
79053;BMP280;68451;49.510;6.026;2023-07-20T06:59:52;98037.47;;;24.98
79053;BMP280;68451;49.510;6.026;2023-07-20T07:02:19;98098.91;;;25.49
79053;BMP280;68451;49.510;6.026;2023-07-20T07:04:45;98067.47;;;25.63
79053;BMP280;68451;49.510;6.026;2023-07-20T07:07:14;98106.88;;;26.09
79053;BMP280;68451;49.510;6.026;2023-07-20T07:09:41;97985.72;;;24.68
79053;BMP280;68451;49.510;6.026;2023-07-20T07:12:07;98011.16;;;23.78
79053;BMP280;68451;49.510;6.026;2023-07-20T07:14:33;98095.31;;;23.70
79053;BMP280;68451;49.510;6.026;2023-07-20T07:16:58;98024.38;;;22.53
79053;BMP280;68451;49.510;6.026;2023-07-20T07:19:24;98086.34;;;22.67
79053;BMP280;68451;49.510;6.026;2023-07-20T07:21:50;98077.16;;;22.18
79053;BMP280;68451;49.510;6.026;2023-07-20T07:24:16;98098.75;;;22.58
79053;BMP280;68451;49.510;6.026;2023-07-20T07:26:41;98107.78;;;22.29
79053;BMP280;68451;49.510;6.026;2023-07-20T07:29:07;98036.00;;;22.29
79053;BMP280;68451;49.510;6.026;2023-07-20T07:31:34;98037.66;;;22.80
79053;BMP280;68451;49.510;6.026;2023-07-20T07:34:00;98111.50;;;23.24
79053;BMP280;68451;49.510;6.026;2023-07-20T07:36:25;98120.84;;;22.86
79053;BMP280;68451;49.510;6.026;2023-07-20T07:38:51;97909.00;;;21.39
79053;BMP280;68451;49.510;6.026;2023-07-20T07:41:16;98010.78;;;22.27
79053;BMP280;68451;49.510;6.026;2023-07-20T07:43:42;98102.13;;;22.77
79053;BMP280;68451;49.510;6.026;2023-07-20T07:46:08;98114.06;;;23.29
79053;BMP280;68451;49.510;6.026;2023-07-20T07:48:33;98131.56;;;23.80
79053;BMP280;68451;49.510;6.026;2023-07-20T07:50:59;98116.97;;;23.99
79053;BMP280;68451;49.510;6.026;2023-07-20T07:53:24;98025.16;;;23.61
79053;BMP280;68451;49.510;6.026;2023-07-20T07:55:51;98132.16;;;24.52
79053;BMP280;68451;49.510;6.026;2023-07-20T07:58:17;98048.34;;;24.62
79053;BMP280;68451;49.510;6.026;2023-07-20T08:00:42;97909.31;;;24.15
79053;BMP280;68451;49.510;6.026;2023-07-20T08:03:09;98116.53;;;25.67
79053;BMP280;68451;49.510;6.026;2023-07-20T08:05:35;98117.50;;;25.54
79053;BMP280;68451;49.510;6.026;2023-07-20T08:08:02;98099.25;;;25.22
79053;BMP280;68451;49.510;6.026;2023-07-20T08:10:29;98131.66;;;25.63
79053;BMP280;68451;49.510;6.026;2023-07-20T08:12:55;98124.75;;;25.71
79053;BMP280;68451;49.510;6.026;2023-07-20T08:15:20;98130.34;;;26.04
79053;BMP280;68451;49.510;6.026;2023-07-20T08:17:46;98131.59;;;26.23
79053;BMP280;68451;49.510;6.026;2023-07-20T08:20:14;98055.06;;;25.59
79053;BMP280;68451;49.510;6.026;2023-07-20T08:22:39;98037.63;;;25.10
79053;BMP280;68451;49.510;6.026;2023-07-20T08:25:06;98125.03;;;25.78
79053;BMP280;68451;49.510;6.026;2023-07-20T08:27:32;98136.38;;;25.66
79053;BMP280;68451;49.510;6.026;2023-07-20T08:29:57;98101.13;;;25.13
79053;BMP280;68451;49.510;6.026;2023-07-20T08:32:26;98127.16;;;24.99
79053;BMP280;68451;49.510;6.026;2023-07-20T08:34:52;98127.56;;;24.83
79053;BMP280;68451;49.510;6.026;2023-07-20T08:37:18;98108.41;;;24.73
79053;BMP280;68451;49.510;6.026;2023-07-20T08:39:43;98089.16;;;25.02
79053;BMP280;68451;49.510;6.026;2023-07-20T08:42:10;98039.25;;;24.54
79053;BMP280;68451;49.510;6.026;2023-07-20T08:44:39;98120.25;;;25.06
79053;BMP280;68451;49.510;6.026;2023-07-20T08:47:06;98130.03;;;25.19
79053;BMP280;68451;49.510;6.026;2023-07-20T08:49:32;98105.84;;;25.33
79053;BMP280;68451;49.510;6.026;2023-07-20T08:51:58;98130.38;;;25.78
79053;BMP280;68451;49.510;6.026;2023-07-20T08:54:27;98130.88;;;25.80
79053;BMP280;68451;49.510;6.026;2023-07-20T08:56:56;98116.22;;;25.52
79053;BMP280;68451;49.510;6.026;2023-07-20T08:59:23;98048.44;;;25.13
79053;BMP280;68451;49.510;6.026;2023-07-20T09:01:51;98107.91;;;25.62
79053;BMP280;68451;49.510;6.026;2023-07-20T09:04:19;98134.78;;;25.74
79053;BMP280;68451;49.510;6.026;2023-07-20T09:06:44;98038.22;;;25.58
79053;BMP280;68451;49.510;6.026;2023-07-20T09:09:11;98121.09;;;26.48
79053;BMP280;68451;49.510;6.026;2023-07-20T09:11:37;98025.13;;;26.38
79053;BMP280;68451;49.510;6.026;2023-07-20T09:14:06;98109.00;;;27.09
79053;BMP280;68451;49.510;6.026;2023-07-20T09:16:32;98096.06;;;27.11
79053;BMP280;68451;49.510;6.026;2023-07-20T09:19:03;98105.03;;;27.36
79053;BMP280;68451;49.510;6.026;2023-07-20T09:21:29;98095.72;;;27.33
79053;BMP280;68451;49.510;6.026;2023-07-20T09:23:58;98057.28;;;27.29
79053;BMP280;68451;49.510;6.026;2023-07-20T09:26:24;98094.19;;;27.53
79053;BMP280;68451;49.510;6.026;2023-07-20T09:28:51;98104.78;;;27.49
79053;BMP280;68451;49.510;6.026;2023-07-20T09:31:18;98082.47;;;27.57
79053;BMP280;68451;49.510;6.026;2023-07-20T09:33:46;98099.44;;;28.15
79053;BMP280;68451;49.510;6.026;2023-07-20T09:36:12;98111.09;;;28.43
79053;BMP280;68451;49.510;6.026;2023-07-20T09:38:41;98102.16;;;28.52
79053;BMP280;68451;49.510;6.026;2023-07-20T09:41:07;98122.69;;;28.11
79053;BMP280;68451;49.510;6.026;2023-07-20T09:43:36;98112.59;;;27.54
79053;BMP280;68451;49.510;6.026;2023-07-20T09:46:02;98089.13;;;27.31
79053;BMP280;68451;49.510;6.026;2023-07-20T09:48:27;97984.53;;;26.77
79053;BMP280;68451;49.510;6.026;2023-07-20T09:50:53;98117.97;;;27.75
79053;BMP280;68451;49.510;6.026;2023-07-20T09:53:19;98116.06;;;27.55
79053;BMP280;68451;49.510;6.026;2023-07-20T09:55:46;98094.09;;;27.62
79053;BMP280;68451;49.510;6.026;2023-07-20T09:58:14;98088.41;;;27.96
79053;BMP280;68451;49.510;6.026;2023-07-20T10:00:41;98080.09;;;28.34
79053;BMP280;68451;49.510;6.026;2023-07-20T10:03:16;98106.44;;;28.77
79053;BMP280;68451;49.510;6.026;2023-07-20T10:05:43;98099.13;;;28.53
79053;BMP280;68451;49.510;6.026;2023-07-20T10:08:12;98066.13;;;28.28
79053;BMP280;68451;49.510;6.026;2023-07-20T10:10:41;97899.66;;;27.55
79053;BMP280;68451;49.510;6.026;2023-07-20T10:13:12;98092.00;;;29.33
79053;BMP280;68451;49.510;6.026;2023-07-20T10:18:27;98043.66;;;29.77
79053;BMP280;68451;49.510;6.026;2023-07-20T10:20:54;97999.69;;;29.57
79053;BMP280;68451;49.510;6.026;2023-07-20T10:23:21;98049.09;;;30.08
79053;BMP280;68451;49.510;6.026;2023-07-20T10:25:48;98012.03;;;29.74
79053;BMP280;68451;49.510;6.026;2023-07-20T10:28:14;98062.59;;;29.96
79053;BMP280;68451;49.510;6.026;2023-07-20T10:30:39;98046.06;;;29.82
79053;BMP280;68451;49.510;6.026;2023-07-20T10:33:06;98049.66;;;29.86
79053;BMP280;68451;49.510;6.026;2023-07-20T10:35:50;98070.88;;;30.19
79053;BMP280;68451;49.510;6.026;2023-07-20T10:38:16;98060.91;;;30.51
79053;BMP280;68451;49.510;6.026;2023-07-20T10:40:41;98044.06;;;30.73
79053;BMP280;68451;49.510;6.026;2023-07-20T10:43:09;98024.59;;;30.80
79053;BMP280;68451;49.510;6.026;2023-07-20T10:45:39;98043.19;;;31.20
79053;BMP280;68451;49.510;6.026;2023-07-20T10:48:25;98037.22;;;30.95
79053;BMP280;68451;49.510;6.026;2023-07-20T10:51:12;98045.41;;;30.32
79053;BMP280;68451;49.510;6.026;2023-07-20T10:53:41;98044.31;;;30.17
79053;BMP280;68451;49.510;6.026;2023-07-20T10:56:12;98017.88;;;29.92
79053;BMP280;68451;49.510;6.026;2023-07-20T10:58:39;98027.84;;;29.75
79053;BMP280;68451;49.510;6.026;2023-07-20T11:01:06;98033.63;;;29.34
79053;BMP280;68451;49.510;6.026;2023-07-20T11:03:34;97897.13;;;28.20
79053;BMP280;68451;49.510;6.026;2023-07-20T11:08:48;97920.88;;;28.45
79053;BMP280;68451;49.510;6.026;2023-07-20T11:11:27;97920.03;;;27.93
79053;BMP280;68451;49.510;6.026;2023-07-20T11:14:01;97989.78;;;28.05
79053;BMP280;68451;49.510;6.026;2023-07-20T11:16:41;98030.91;;;28.30
79053;BMP280;68451;49.510;6.026;2023-07-20T11:19:15;97999.44;;;28.42
79053;BMP280;68451;49.510;6.026;2023-07-20T11:21:43;98004.47;;;28.56
79053;BMP280;68451;49.510;6.026;2023-07-20T11:24:09;97977.84;;;28.27
79053;BMP280;68451;49.510;6.026;2023-07-20T11:26:48;98014.53;;;28.11
79053;BMP280;68451;49.510;6.026;2023-07-20T11:29:17;97977.09;;;27.57
79053;BMP280;68451;49.510;6.026;2023-07-20T11:31:44;98004.13;;;27.52
79053;BMP280;68451;49.510;6.026;2023-07-20T11:34:13;97981.84;;;27.39
79053;BMP280;68451;49.510;6.026;2023-07-20T11:36:42;97985.53;;;27.14
79053;BMP280;68451;49.510;6.026;2023-07-20T11:39:09;97946.00;;;26.69
79053;BMP280;68451;49.510;6.026;2023-07-20T11:41:35;97986.34;;;26.94
79053;BMP280;68451;49.510;6.026;2023-07-20T11:44:01;98010.69;;;27.01
79053;BMP280;68451;49.510;6.026;2023-07-20T11:46:28;97876.13;;;26.21
79053;BMP280;68451;49.510;6.026;2023-07-20T11:49:00;97987.91;;;26.95
79053;BMP280;68451;49.510;6.026;2023-07-20T11:51:30;98010.84;;;27.04
79053;BMP280;68451;49.510;6.026;2023-07-20T11:53:57;97961.34;;;26.81
79053;BMP280;68451;49.510;6.026;2023-07-20T11:56:26;97952.72;;;26.76
79053;BMP280;68451;49.510;6.026;2023-07-20T11:58:55;97887.13;;;25.90
79053;BMP280;68451;49.510;6.026;2023-07-20T12:01:23;97961.31;;;26.10
79053;BMP280;68451;49.510;6.026;2023-07-20T12:03:48;97983.75;;;25.89
79053;BMP280;68451;49.510;6.026;2023-07-20T12:06:17;97870.44;;;24.83
79053;BMP280;68451;49.510;6.026;2023-07-20T12:08:43;97981.19;;;25.28
79053;BMP280;68451;49.510;6.026;2023-07-20T12:11:09;97941.16;;;24.94
79053;BMP280;68451;49.510;6.026;2023-07-20T12:13:42;97824.91;;;24.10
79053;BMP280;68451;49.510;6.026;2023-07-20T12:16:15;97971.31;;;25.03
79053;BMP280;68451;49.510;6.026;2023-07-20T12:18:42;97968.31;;;25.22
79053;BMP280;68451;49.510;6.026;2023-07-20T12:21:08;97984.94;;;25.45
79053;BMP280;68451;49.510;6.026;2023-07-20T12:23:38;97932.94;;;25.33
79053;BMP280;68451;49.510;6.026;2023-07-20T12:26:08;97972.88;;;25.85
79053;BMP280;68451;49.510;6.026;2023-07-20T12:28:40;97949.56;;;25.94
79053;BMP280;68451;49.510;6.026;2023-07-20T12:31:07;97852.47;;;25.35
79053;BMP280;68451;49.510;6.026;2023-07-20T12:33:35;97964.56;;;26.24
79053;BMP280;68451;49.510;6.026;2023-07-20T12:36:00;97933.22;;;26.25
79053;BMP280;68451;49.510;6.026;2023-07-20T12:38:26;97958.69;;;26.60
79053;BMP280;68451;49.510;6.026;2023-07-20T12:40:53;97938.25;;;26.56
79053;BMP280;68451;49.510;6.026;2023-07-20T12:43:20;97939.16;;;26.60
79053;BMP280;68451;49.510;6.026;2023-07-20T12:45:46;97958.09;;;26.76
79053;BMP280;68451;49.510;6.026;2023-07-20T12:48:13;97819.91;;;26.00
79053;BMP280;68451;49.510;6.026;2023-07-20T12:50:39;97941.34;;;26.79
79053;BMP280;68451;49.510;6.026;2023-07-20T12:53:05;97934.97;;;26.71
79053;BMP280;68451;49.510;6.026;2023-07-20T12:55:31;97937.66;;;26.50
79053;BMP280;68451;49.510;6.026;2023-07-20T12:57:57;97948.19;;;26.26
79053;BMP280;68451;49.510;6.026;2023-07-20T13:00:22;97942.53;;;26.19
79053;BMP280;68451;49.510;6.026;2023-07-20T13:02:49;97924.22;;;25.71
79053;BMP280;68451;49.510;6.026;2023-07-20T13:05:15;97918.72;;;25.50
79053;BMP280;68451;49.510;6.026;2023-07-20T13:07:42;97915.75;;;25.52
79053;BMP280;68451;49.510;6.026;2023-07-20T13:10:09;97921.94;;;25.81
79053;BMP280;68451;49.510;6.026;2023-07-20T13:12:36;97923.44;;;26.00
79053;BMP280;68451;49.510;6.026;2023-07-20T13:15:03;97794.19;;;25.20
79053;BMP280;68451;49.510;6.026;2023-07-20T13:17:31;97928.34;;;25.98
79053;BMP280;68451;49.510;6.026;2023-07-20T13:19:57;97906.38;;;25.83
79053;BMP280;68451;49.510;6.026;2023-07-20T13:22:22;97903.31;;;25.64
79053;BMP280;68451;49.510;6.026;2023-07-20T13:24:49;97833.56;;;24.93
79053;BMP280;68451;49.510;6.026;2023-07-20T13:27:17;97524.19;;;22.92
79053;BMP280;68451;49.510;6.026;2023-07-20T13:29:43;97784.41;;;24.77
79053;BMP280;68451;49.510;6.026;2023-07-20T13:32:09;97795.53;;;24.79
79053;BMP280;68451;49.510;6.026;2023-07-20T13:34:35;97914.19;;;25.42
79053;BMP280;68451;49.510;6.026;2023-07-20T13:37:01;97795.72;;;24.74
79053;BMP280;68451;49.510;6.026;2023-07-20T13:39:27;97806.53;;;24.86
79053;BMP280;68451;49.510;6.026;2023-07-20T13:41:53;97893.56;;;25.51
79053;BMP280;68451;49.510;6.026;2023-07-20T13:44:20;97900.66;;;25.56
79053;BMP280;68451;49.510;6.026;2023-07-20T13:46:46;97854.78;;;25.36
79053;BMP280;68451;49.510;6.026;2023-07-20T13:49:12;97800.41;;;24.94
79053;BMP280;68451;49.510;6.026;2023-07-20T13:51:37;97779.69;;;24.91
79053;BMP280;68451;49.510;6.026;2023-07-20T13:54:04;97869.81;;;25.58
79053;BMP280;68451;49.510;6.026;2023-07-20T13:56:29;97875.03;;;25.55
79053;BMP280;68451;49.510;6.026;2023-07-20T13:58:54;97850.81;;;25.51
79053;BMP280;68451;49.510;6.026;2023-07-20T14:01:20;97809.56;;;25.23
79053;BMP280;68451;49.510;6.026;2023-07-20T14:03:48;97870.06;;;25.74
79053;BMP280;68451;49.510;6.026;2023-07-20T14:06:14;97886.56;;;25.84
79053;BMP280;68451;49.510;6.026;2023-07-20T14:08:40;97877.88;;;25.88
79053;BMP280;68451;49.510;6.026;2023-07-20T14:11:06;97858.88;;;25.80
79053;BMP280;68451;49.510;6.026;2023-07-20T14:13:31;97853.44;;;25.98
79053;BMP280;68451;49.510;6.026;2023-07-20T14:15:57;97862.81;;;26.04
79053;BMP280;68451;49.510;6.026;2023-07-20T14:18:23;97865.31;;;26.09